CDT,Max TemperatureF,Mean TemperatureF,Min TemperatureF,Max Dew PointF,MeanDew PointF,Min DewpointF,Max Humidity, Mean Humidity, Min Humidity, Max Sea Level PressureIn, Mean Sea Level PressureIn, Min Sea Level PressureIn, Max VisibilityMiles, Mean VisibilityMiles, Min VisibilityMiles, Max Wind SpeedMPH, Mean Wind SpeedMPH, Max Gust SpeedMPH,PrecipitationIn, CloudCover, Events, WindDirDegrees
2011-10-1,82,65,48,53,43,39,72,50,28,29.96,29.91,29.89,10,10,9,20,7,24,0.00,0,,164
2011-10-2,89,67,45,51,47,43,93,57,21,29.95,29.89,29.82,10,10,10,17,6,23,0.00,0,,137
2011-10-3,75,63,50,52,49,47,86,66,46,30.04,29.99,29.88,10,10,9,15,7,22,0.00,0,,6
2011-10-4,78,60,41,53,47,39,96,68,39,30.03,29.89,29.69,10,9,2,18,8,22,0.00,0,,55
2011-10-5,87,70,52,49,43,37,83,53,22,29.68,29.59,29.53,10,10,6,31,19,47,0.00,0,,142
2011-10-6,72,67,61,59,48,41,59,47,35,29.60,29.56,29.51,10,10,3,26,16,38,0.22,2,Rain,129
2011-10-7,64,58,52,57,48,36,90,65,39,29.60,29.39,29.27,10,10,9,31,16,39,T,5,Rain,172
2011-10-8,59,51,42,46,42,37,77,62,47,30.25,29.99,29.62,10,10,10,25,14,32,0.00,3,,279
2011-10-9,54,45,36,46,40,33,93,76,59,30.31,30.17,29.99,10,8,3,10,5,13,0.21,5,Rain,76
2011-10-10,54,50,46,49,47,44,93,88,83,29.96,29.76,29.67,10,7,2,13,6,16,0.21,7,Rain,222
2011-10-11,67,56,45,49,44,41,89,67,44,29.66,29.63,29.60,10,10,10,14,7,16,T,3,,196
2011-10-12,64,54,43,47,45,41,93,71,48,29.85,29.73,29.61,10,10,6,23,11,28,0.02,2,Rain,265
2011-10-13,56,48,40,44,42,39,96,79,61,29.85,29.80,29.74,10,9,4,31,13,41,0.06,6,Rain,261
2011-10-14,52,45,37,41,38,35,85,73,61,29.97,29.92,29.84,10,10,2,23,14,31,0.01,6,Rain,277
2011-10-15,53,44,34,38,35,30,89,70,50,29.96,29.92,29.88,10,10,8,21,9,26,T,2,Rain,257
2011-10-16,52,44,35,35,31,27,89,64,39,30.07,30.01,29.93,10,10,10,26,15,32,0.00,1,,274
2011-10-17,53,44,34,30,28,25,70,54,38,30.16,30.05,29.96,10,10,10,26,16,33,0.00,0,,279
2011-10-18,53,41,28,32,29,25,92,68,44,30.29,30.23,30.13,10,10,10,17,9,23,0.00,2,,295
2011-10-19,49,35,21,25,21,18,88,60,31,30.31,30.23,30.06,10,10,7,13,5,16,0.00,0,,119
2011-10-20,58,43,27,36,28,24,92,64,35,30.11,29.95,29.82,10,10,10,21,8,26,0.00,0,,172
2011-10-21,60,49,37,40,35,31,85,61,36,30.12,30.02,29.86,10,10,10,17,10,22,0.00,1,,275
2011-10-22,65,49,32,43,35,29,89,63,37,30.09,29.93,29.81,10,10,10,22,9,30,0.00,1,,221
2011-10-23,59,50,41,43,40,35,92,68,44,29.96,29.88,29.82,10,9,2,30,8,37,0.33,5,Rain-Thunderstorm,253
2011-10-24,49,41,33,40,37,33,100,83,66,30.06,30.02,29.93,10,10,9,13,4,15,0.00,3,,272
2011-10-25,42,38,34,41,38,34,100,91,82,30.22,30.08,30.02,10,6,2,18,5,24,0.40,8,Rain,4
2011-10-26,48,39,29,34,31,27,92,73,53,30.23,30.16,30.04,10,10,9,17,10,21,0.00,1,,256
2011-10-27,50,40,30,35,29,24,92,73,54,30.08,29.99,29.91,10,10,10,22,10,28,0.00,2,,232
2011-10-28,50,40,30,28,25,23,78,57,36,30.15,30.09,30.01,10,10,10,21,10,26,0.00,0,,259
2011-10-29,54,42,29,40,30,24,83,62,41,29.98,29.79,29.67,10,10,9,28,13,36,0.02,6,Rain,197
2011-10-30,50,42,33,32,29,28,82,64,46,30.00,29.95,29.86,10,10,10,25,13,32,0.00,0,,267
2011-10-31,63,47,31,41,33,27,82,62,42,29.90,29.75,29.64,10,10,10,25,12,33,T,1,,226